sensor_id;sensor_type;location;lat;lon;timestamp;pressure;altitude;pressure_sealevel;temperature;humidity
58973;BME280;44750;52.040;7.472;2023-06-24T00:01:12;101090.91;;;20.72;nan
58973;BME280;44750;52.040;7.472;2023-06-24T00:06:14;101074.38;;;20.65;nan
58973;BME280;44750;52.040;7.472;2023-06-24T00:11:15;101081.16;;;20.56;nan
58973;BME280;44750;52.040;7.472;2023-06-24T00:16:15;101078.59;;;20.54;nan
58973;BME280;44750;52.040;7.472;2023-06-24T00:21:15;101061.44;;;20.39;nan
58973;BME280;44750;52.040;7.472;2023-06-24T00:26:16;101067.38;;;20.29;nan
58973;BME280;44750;52.040;7.472;2023-06-24T00:31:16;101051.69;;;20.16;nan
58973;BME280;44750;52.040;7.472;2023-06-24T00:36:16;101069.06;;;20.30;nan
58973;BME280;44750;52.040;7.472;2023-06-24T00:41:17;101057.22;;;20.36;nan
58973;BME280;44750;52.040;7.472;2023-06-24T00:46:18;101049.84;;;20.37;nan
58973;BME280;44750;52.040;7.472;2023-06-24T00:51:18;101065.69;;;20.42;nan
58973;BME280;44750;52.040;7.472;2023-06-24T00:56:21;101056.16;;;20.31;nan
58973;BME280;44750;52.040;7.472;2023-06-24T01:01:25;101057.19;;;20.23;nan
58973;BME280;44750;52.040;7.472;2023-06-24T01:06:26;101044.06;;;20.05;nan
58973;BME280;44750;52.040;7.472;2023-06-24T01:11:28;101050.00;;;20.02;nan
58973;BME280;44750;52.040;7.472;2023-06-24T01:17:45;101056.13;;;20.04;nan
58973;BME280;44750;52.040;7.472;2023-06-24T01:27:49;101065.19;;;20.11;nan
58973;BME280;44750;52.040;7.472;2023-06-24T01:33:07;101051.44;;;20.04;nan
58973;BME280;44750;52.040;7.472;2023-06-24T01:38:10;101035.38;;;19.95;nan
58973;BME280;44750;52.040;7.472;2023-06-24T01:43:16;101026.44;;;19.79;nan
58973;BME280;44750;52.040;7.472;2023-06-24T01:48:25;101039.31;;;19.79;nan
58973;BME280;44750;52.040;7.472;2023-06-24T01:53:27;101035.91;;;19.70;nan
58973;BME280;44750;52.040;7.472;2023-06-24T01:58:30;101050.78;;;19.82;nan
58973;BME280;44750;52.040;7.472;2023-06-24T02:03:32;101047.34;;;19.80;nan
58973;BME280;44750;52.040;7.472;2023-06-24T02:08:35;101023.41;;;19.61;nan
58973;BME280;44750;52.040;7.472;2023-06-24T02:13:38;101037.16;;;19.61;nan
58973;BME280;44750;52.040;7.472;2023-06-24T02:18:40;101008.16;;;19.45;nan
58973;BME280;44750;52.040;7.472;2023-06-24T02:23:41;101014.44;;;19.38;nan
58973;BME280;44750;52.040;7.472;2023-06-24T02:28:44;101037.31;;;19.52;nan
58973;BME280;44750;52.040;7.472;2023-06-24T02:33:44;101021.91;;;19.51;nan
58973;BME280;44750;52.040;7.472;2023-06-24T02:38:45;101029.69;;;19.48;nan
58973;BME280;44750;52.040;7.472;2023-06-24T02:43:45;101013.75;;;19.30;nan
58973;BME280;44750;52.040;7.472;2023-06-24T02:48:46;101018.63;;;19.28;nan
58973;BME280;44750;52.040;7.472;2023-06-24T02:53:47;100999.72;;;19.11;nan
58973;BME280;44750;52.040;7.472;2023-06-24T02:58:48;101009.84;;;19.04;nan
58973;BME280;44750;52.040;7.472;2023-06-24T03:03:53;101006.84;;;18.99;nan
58973;BME280;44750;52.040;7.472;2023-06-24T03:08:54;101014.66;;;19.02;nan
58973;BME280;44750;52.040;7.472;2023-06-24T03:13:54;101033.81;;;18.95;nan
58973;BME280;44750;52.040;7.472;2023-06-24T03:18:54;101027.03;;;18.91;nan
58973;BME280;44750;52.040;7.472;2023-06-24T03:23:55;101030.91;;;18.97;nan
58973;BME280;44750;52.040;7.472;2023-06-24T03:28:55;101044.47;;;19.05;nan
58973;BME280;44750;52.040;7.472;2023-06-24T03:33:55;101028.13;;;18.90;nan
58973;BME280;44750;52.040;7.472;2023-06-24T03:38:55;101047.75;;;18.94;nan
58973;BME280;44750;52.040;7.472;2023-06-24T03:43:55;101058.66;;;19.15;nan
58973;BME280;44750;52.040;7.472;2023-06-24T03:48:56;101051.66;;;19.06;nan
58973;BME280;44750;52.040;7.472;2023-06-24T03:53:56;101044.41;;;18.98;nan
58973;BME280;44750;52.040;7.472;2023-06-24T03:58:56;101059.72;;;19.14;nan
58973;BME280;44750;52.040;7.472;2023-06-24T04:03:57;101077.25;;;19.20;nan
58973;BME280;44750;52.040;7.472;2023-06-24T04:08:58;101079.53;;;19.16;nan
58973;BME280;44750;52.040;7.472;2023-06-24T04:13:58;101062.63;;;19.06;nan
58973;BME280;44750;52.040;7.472;2023-06-24T04:18:58;101094.00;;;19.32;nan
58973;BME280;44750;52.040;7.472;2023-06-24T04:23:58;101076.28;;;19.34;nan
58973;BME280;44750;52.040;7.472;2023-06-24T04:28:58;101088.16;;;19.42;nan
58973;BME280;44750;52.040;7.472;2023-06-24T04:33:59;101086.09;;;19.50;nan
58973;BME280;44750;52.040;7.472;2023-06-24T04:38:59;101107.75;;;19.74;nan
58973;BME280;44750;52.040;7.472;2023-06-24T04:43:59;101114.47;;;20.06;nan
58973;BME280;44750;52.040;7.472;2023-06-24T04:48:59;101091.88;;;20.17;nan
58973;BME280;44750;52.040;7.472;2023-06-24T04:54:00;101076.25;;;20.18;nan
58973;BME280;44750;52.040;7.472;2023-06-24T04:59:01;101120.69;;;20.62;nan
58973;BME280;44750;52.040;7.472;2023-06-24T05:04:01;101119.28;;;21.06;nan
58973;BME280;44750;52.040;7.472;2023-06-24T05:09:01;101086.00;;;21.21;nan
58973;BME280;44750;52.040;7.472;2023-06-24T05:14:02;101030.59;;;20.97;nan
58973;BME280;44750;52.040;7.472;2023-06-24T05:19:02;101004.59;;;20.73;nan
58973;BME280;44750;52.040;7.472;2023-06-24T05:24:02;101012.84;;;20.73;nan
58973;BME280;44750;52.040;7.472;2023-06-24T05:29:02;101028.88;;;20.90;nan
58973;BME280;44750;52.040;7.472;2023-06-24T05:34:03;101061.47;;;21.19;nan
58973;BME280;44750;52.040;7.472;2023-06-24T05:39:03;101037.75;;;21.18;nan
58973;BME280;44750;52.040;7.472;2023-06-24T05:44:06;101009.41;;;21.11;nan
58973;BME280;44750;52.040;7.472;2023-06-24T05:49:06;101019.97;;;21.14;nan
58973;BME280;44750;52.040;7.472;2023-06-24T05:54:06;101037.50;;;21.20;nan
58973;BME280;44750;52.040;7.472;2023-06-24T05:59:06;101128.53;;;22.11;nan
58973;BME280;44750;52.040;7.472;2023-06-24T06:04:07;101104.25;;;22.33;nan
58973;BME280;44750;52.040;7.472;2023-06-24T06:09:07;101122.28;;;22.67;nan
58973;BME280;44750;52.040;7.472;2023-06-24T06:14:07;101065.91;;;22.57;nan
58973;BME280;44750;52.040;7.472;2023-06-24T06:19:07;101103.75;;;23.00;nan
58973;BME280;44750;52.040;7.472;2023-06-24T06:24:08;101052.94;;;23.08;nan
58973;BME280;44750;52.040;7.472;2023-06-24T06:29:08;101076.28;;;23.30;nan
58973;BME280;44750;52.040;7.472;2023-06-24T06:34:08;101083.81;;;23.42;nan
58973;BME280;44750;52.040;7.472;2023-06-24T06:39:08;101134.63;;;23.96;nan
58973;BME280;44750;52.040;7.472;2023-06-24T06:44:08;101153.78;;;24.28;nan
58973;BME280;44750;52.040;7.472;2023-06-24T06:49:09;101113.34;;;24.58;nan
58973;BME280;44750;52.040;7.472;2023-06-24T06:54:09;101135.84;;;24.92;nan
58973;BME280;44750;52.040;7.472;2023-06-24T06:59:09;101119.19;;;24.68;nan
58973;BME280;44750;52.040;7.472;2023-06-24T07:04:10;101088.03;;;24.73;nan
58973;BME280;44750;52.040;7.472;2023-06-24T07:09:10;101129.34;;;24.98;nan
58973;BME280;44750;52.040;7.472;2023-06-24T07:14:10;101129.56;;;25.08;nan
58973;BME280;44750;52.040;7.472;2023-06-24T07:19:10;101142.38;;;25.33;nan
58973;BME280;44750;52.040;7.472;2023-06-24T07:24:11;101143.47;;;25.44;nan
58973;BME280;44750;52.040;7.472;2023-06-24T07:29:11;101111.78;;;25.51;nan
58973;BME280;44750;52.040;7.472;2023-06-24T07:34:11;101192.06;;;25.99;nan
58973;BME280;44750;52.040;7.472;2023-06-24T07:39:12;101163.66;;;26.03;nan
58973;BME280;44750;52.040;7.472;2023-06-24T07:44:12;101219.38;;;26.43;nan
58973;BME280;44750;52.040;7.472;2023-06-24T07:49:12;101176.19;;;26.64;nan
58973;BME280;44750;52.040;7.472;2023-06-24T07:54:12;101267.13;;;27.31;nan
58973;BME280;44750;52.040;7.472;2023-06-24T07:59:12;101262.00;;;27.74;nan
58973;BME280;44750;52.040;7.472;2023-06-24T08:04:15;101242.25;;;27.93;nan
58973;BME280;44750;52.040;7.472;2023-06-24T08:09:16;101202.06;;;27.83;nan
58973;BME280;44750;52.040;7.472;2023-06-24T08:14:17;101217.34;;;28.03;nan
58973;BME280;44750;52.040;7.472;2023-06-24T08:19:17;101126.88;;;27.78;nan
58973;BME280;44750;52.040;7.472;2023-06-24T08:24:17;101258.47;;;28.18;nan
58973;BME280;44750;52.040;7.472;2023-06-24T08:29:17;101177.28;;;28.26;nan
58973;BME280;44750;52.040;7.472;2023-06-24T08:34:18;101224.28;;;28.45;nan
58973;BME280;44750;52.040;7.472;2023-06-24T08:39:18;101115.72;;;28.23;nan
58973;BME280;44750;52.040;7.472;2023-06-24T08:44:19;101210.16;;;28.79;nan
58973;BME280;44750;52.040;7.472;2023-06-24T08:49:27;101235.84;;;29.13;nan
58973;BME280;44750;52.040;7.472;2023-06-24T08:54:30;101275.88;;;29.62;nan
58973;BME280;44750;52.040;7.472;2023-06-24T08:59:33;101241.66;;;29.77;nan
58973;BME280;44750;52.040;7.472;2023-06-24T09:04:34;101047.06;;;29.46;nan
58973;BME280;44750;52.040;7.472;2023-06-24T09:09:42;100947.66;;;29.14;nan
58973;BME280;44750;52.040;7.472;2023-06-24T09:14:47;101086.09;;;29.41;nan
58973;BME280;44750;52.040;7.472;2023-06-24T09:19:49;101041.53;;;29.57;nan
58973;BME280;44750;52.040;7.472;2023-06-24T09:24:49;101199.16;;;30.17;nan
58973;BME280;44750;52.040;7.472;2023-06-24T09:29:49;101069.03;;;30.01;nan
58973;BME280;44750;52.040;7.472;2023-06-24T09:34:50;101017.13;;;30.05;nan
58973;BME280;44750;52.040;7.472;2023-06-24T09:39:50;101000.31;;;29.74;nan
58973;BME280;44750;52.040;7.472;2023-06-24T09:44:54;101089.50;;;30.32;nan
58973;BME280;44750;52.040;7.472;2023-06-24T09:49:54;100838.94;;;29.09;nan
58973;BME280;44750;52.040;7.472;2023-06-24T09:54:55;101185.59;;;30.42;nan
58973;BME280;44750;52.040;7.472;2023-06-24T09:59:56;101093.72;;;30.45;nan
58973;BME280;44750;52.040;7.472;2023-06-24T10:04:59;100980.03;;;30.51;nan
58973;BME280;44750;52.040;7.472;2023-06-24T10:10:02;100865.81;;;29.67;nan
58973;BME280;44750;52.040;7.472;2023-06-24T10:15:03;100854.84;;;29.24;nan
58973;BME280;44750;52.040;7.472;2023-06-24T10:20:04;100842.91;;;29.29;nan
58973;BME280;44750;52.040;7.472;2023-06-24T10:25:06;100972.78;;;29.25;nan
58973;BME280;44750;52.040;7.472;2023-06-24T10:30:06;101123.34;;;30.51;nan
58973;BME280;44750;52.040;7.472;2023-06-24T10:35:07;100743.91;;;29.21;nan
58973;BME280;44750;52.040;7.472;2023-06-24T10:40:07;100953.97;;;29.63;nan
58973;BME280;44750;52.040;7.472;2023-06-24T10:50:12;100838.78;;;30.14;nan
58973;BME280;44750;52.040;7.472;2023-06-24T10:55:14;100771.00;;;29.46;nan
58973;BME280;44750;52.040;7.472;2023-06-24T11:00:16;100760.06;;;30.12;nan
58973;BME280;44750;52.040;7.472;2023-06-24T11:05:16;100717.47;;;30.51;nan
58973;BME280;44750;52.040;7.472;2023-06-24T11:10:16;100581.28;;;29.77;nan
58973;BME280;44750;52.040;7.472;2023-06-24T11:15:16;100834.69;;;30.77;nan
58973;BME280;44750;52.040;7.472;2023-06-24T11:20:16;100607.06;;;30.64;nan
58973;BME280;44750;52.040;7.472;2023-06-24T11:25:21;100671.25;;;30.74;nan
58973;BME280;44750;52.040;7.472;2023-06-24T11:30:21;100841.28;;;31.51;nan
58973;BME280;44750;52.040;7.472;2023-06-24T11:35:21;100664.19;;;31.22;nan
58973;BME280;44750;52.040;7.472;2023-06-24T11:40:22;100636.34;;;31.41;nan
58973;BME280;44750;52.040;7.472;2023-06-24T11:45:22;100371.03;;;31.34;nan
58973;BME280;44750;52.040;7.472;2023-06-24T11:50:26;100220.34;;;31.13;nan
58973;BME280;44750;52.040;7.472;2023-06-24T11:55:30;100410.31;;;31.67;nan
58973;BME280;44750;52.040;7.472;2023-06-24T12:00:41;100481.91;;;32.06;nan
58973;BME280;44750;52.040;7.472;2023-06-24T12:05:41;100339.03;;;31.78;nan
58973;BME280;44750;52.040;7.472;2023-06-24T12:10:43;100169.94;;;31.18;nan
58973;BME280;44750;52.040;7.472;2023-06-24T12:15:43;100378.72;;;31.42;nan
58973;BME280;44750;52.040;7.472;2023-06-24T12:20:44;100434.94;;;31.84;nan
58973;BME280;44750;52.040;7.472;2023-06-24T12:25:44;100297.78;;;31.70;nan
58973;BME280;44750;52.040;7.472;2023-06-24T12:30:44;100258.63;;;31.84;nan
58973;BME280;44750;52.040;7.472;2023-06-24T12:35:44;100336.75;;;32.13;nan
58973;BME280;44750;52.040;7.472;2023-06-24T12:40:45;100230.03;;;31.87;nan
58973;BME280;44750;52.040;7.472;2023-06-24T12:45:45;100118.56;;;31.47;nan
58973;BME280;44750;52.040;7.472;2023-06-24T12:50:45;100209.69;;;31.81;nan
58973;BME280;44750;52.040;7.472;2023-06-24T12:55:45;100220.38;;;31.93;nan
58973;BME280;44750;52.040;7.472;2023-06-24T13:00:46;100219.63;;;32.21;nan
58973;BME280;44750;52.040;7.472;2023-06-24T13:05:46;99814.69;;;31.29;nan
58973;BME280;44750;52.040;7.472;2023-06-24T13:10:46;99797.94;;;31.15;nan
58973;BME280;44750;52.040;7.472;2023-06-24T13:15:46;99666.34;;;30.89;nan
58973;BME280;44750;52.040;7.472;2023-06-24T13:20:47;99676.13;;;31.00;nan
58973;BME280;44750;52.040;7.472;2023-06-24T13:25:55;99940.94;;;31.87;nan
58973;BME280;44750;52.040;7.472;2023-06-24T13:30:55;99930.00;;;32.13;nan
58973;BME280;44750;52.040;7.472;2023-06-24T13:35:56;99746.34;;;32.03;nan
58973;BME280;44750;52.040;7.472;2023-06-24T13:40:56;99575.19;;;31.78;nan
58973;BME280;44750;52.040;7.472;2023-06-24T13:45:56;99746.16;;;32.08;nan
58973;BME280;44750;52.040;7.472;2023-06-24T13:50:57;99720.50;;;32.06;nan
58973;BME280;44750;52.040;7.472;2023-06-24T13:55:57;99754.97;;;32.15;nan
58973;BME280;44750;52.040;7.472;2023-06-24T14:00:57;99741.06;;;32.33;nan
58973;BME280;44750;52.040;7.472;2023-06-24T14:05:57;99667.06;;;32.25;nan
58973;BME280;44750;52.040;7.472;2023-06-24T14:10:58;99678.09;;;32.22;nan
58973;BME280;44750;52.040;7.472;2023-06-24T14:15:59;99567.69;;;32.05;nan
58973;BME280;44750;52.040;7.472;2023-06-24T14:21:00;99446.31;;;31.66;nan
58973;BME280;44750;52.040;7.472;2023-06-24T14:26:00;99672.13;;;32.14;nan
58973;BME280;44750;52.040;7.472;2023-06-24T14:31:01;99610.03;;;32.12;nan
58973;BME280;44750;52.040;7.472;2023-06-24T14:36:04;99717.66;;;32.29;nan
58973;BME280;44750;52.040;7.472;2023-06-24T14:41:07;99698.19;;;32.24;nan
58973;BME280;44750;52.040;7.472;2023-06-24T14:46:07;99491.91;;;31.84;nan
58973;BME280;44750;52.040;7.472;2023-06-24T14:51:08;99608.09;;;31.81;nan
58973;BME280;44750;52.040;7.472;2023-06-24T14:56:08;99782.00;;;32.20;nan
58973;BME280;44750;52.040;7.472;2023-06-24T15:01:08;99539.63;;;31.70;nan
58973;BME280;44750;52.040;7.472;2023-06-24T15:06:09;99420.47;;;31.11;nan
58973;BME280;44750;52.040;7.472;2023-06-24T15:11:09;99597.84;;;31.68;nan
58973;BME280;44750;52.040;7.472;2023-06-24T15:16:09;99741.88;;;32.02;nan
58973;BME280;44750;52.040;7.472;2023-06-24T15:21:11;99556.13;;;31.80;nan
58973;BME280;44750;52.040;7.472;2023-06-24T15:26:12;99540.81;;;31.87;nan
58973;BME280;44750;52.040;7.472;2023-06-24T15:31:12;99372.38;;;31.58;nan
58973;BME280;44750;52.040;7.472;2023-06-24T15:36:12;99548.25;;;31.60;nan
58973;BME280;44750;52.040;7.472;2023-06-24T15:41:19;99496.00;;;31.69;nan
58973;BME280;44750;52.040;7.472;2023-06-24T15:46:19;99346.84;;;31.33;nan
58973;BME280;44750;52.040;7.472;2023-06-24T15:51:19;99333.50;;;31.22;nan
58973;BME280;44750;52.040;7.472;2023-06-24T15:56:20;99124.59;;;30.43;nan
58973;BME280;44750;52.040;7.472;2023-06-24T16:01:20;99335.97;;;30.74;nan
58973;BME280;44750;52.040;7.472;2023-06-24T16:06:20;99540.41;;;31.30;nan
58973;BME280;44750;52.040;7.472;2023-06-24T16:11:20;99593.06;;;31.37;nan
58973;BME280;44750;52.040;7.472;2023-06-24T16:16:21;99707.13;;;31.72;nan
58973;BME280;44750;52.040;7.472;2023-06-24T16:21:21;99546.75;;;31.54;nan
58973;BME280;44750;52.040;7.472;2023-06-24T16:26:21;99275.22;;;30.89;nan
58973;BME280;44750;52.040;7.472;2023-06-24T16:31:21;99413.09;;;30.93;nan
58973;BME280;44750;52.040;7.472;2023-06-24T16:36:22;99361.22;;;30.69;nan
58973;BME280;44750;52.040;7.472;2023-06-24T16:41:22;99600.97;;;31.12;nan
58973;BME280;44750;52.040;7.472;2023-06-24T16:46:22;99567.13;;;31.14;nan
58973;BME280;44750;52.040;7.472;2023-06-24T16:51:23;99628.53;;;31.28;nan
58973;BME280;44750;52.040;7.472;2023-06-24T16:56:23;99670.69;;;31.40;nan
58973;BME280;44750;52.040;7.472;2023-06-24T17:01:23;99483.53;;;31.04;nan
58973;BME280;44750;52.040;7.472;2023-06-24T17:06:25;99321.47;;;30.72;nan
58973;BME280;44750;52.040;7.472;2023-06-24T17:11:25;99337.06;;;30.64;nan
58973;BME280;44750;52.040;7.472;2023-06-24T17:16:26;99296.50;;;30.44;nan
58973;BME280;44750;52.040;7.472;2023-06-24T17:21:26;99119.84;;;29.95;nan
58973;BME280;44750;52.040;7.472;2023-06-24T17:26:26;99435.63;;;30.42;nan
58973;BME280;44750;52.040;7.472;2023-06-24T17:31:26;99362.22;;;30.42;nan
58973;BME280;44750;52.040;7.472;2023-06-24T17:36:26;99294.19;;;30.06;nan
58973;BME280;44750;52.040;7.472;2023-06-24T17:41:27;99467.09;;;30.34;nan
58973;BME280;44750;52.040;7.472;2023-06-24T17:46:27;99432.88;;;30.28;nan
58973;BME280;44750;52.040;7.472;2023-06-24T17:51:29;99489.09;;;30.35;nan
58973;BME280;44750;52.040;7.472;2023-06-24T17:56:29;99516.75;;;30.60;nan
58973;BME280;44750;52.040;7.472;2023-06-24T18:01:30;99177.28;;;29.73;nan
58973;BME280;44750;52.040;7.472;2023-06-24T18:06:30;99236.94;;;29.63;nan
58973;BME280;44750;52.040;7.472;2023-06-24T18:11:30;99208.41;;;29.44;nan
58973;BME280;44750;52.040;7.472;2023-06-24T18:16:30;99276.63;;;29.46;nan
58973;BME280;44750;52.040;7.472;2023-06-24T18:21:31;99286.19;;;29.31;nan
58973;BME280;44750;52.040;7.472;2023-06-24T18:26:31;99289.91;;;29.27;nan
58973;BME280;44750;52.040;7.472;2023-06-24T18:31:31;99233.28;;;29.03;nan
58973;BME280;44750;52.040;7.472;2023-06-24T18:36:31;99413.63;;;29.12;nan
58973;BME280;44750;52.040;7.472;2023-06-24T18:41:32;99382.44;;;28.96;nan
58973;BME280;44750;52.040;7.472;2023-06-24T18:46:32;99491.00;;;29.01;nan
58973;BME280;44750;52.040;7.472;2023-06-24T18:51:32;99450.81;;;28.74;nan
58973;BME280;44750;52.040;7.472;2023-06-24T18:56:33;99455.34;;;28.70;nan
58973;BME280;44750;52.040;7.472;2023-06-24T19:01:33;99534.78;;;28.81;nan
58973;BME280;44750;52.040;7.472;2023-06-24T19:06:33;99573.84;;;28.76;nan
58973;BME280;44750;52.040;7.472;2023-06-24T19:11:34;99579.88;;;28.64;nan
58973;BME280;44750;52.040;7.472;2023-06-24T19:16:35;99648.13;;;28.62;nan
58973;BME280;44750;52.040;7.472;2023-06-24T19:21:35;99684.88;;;28.59;nan
58973;BME280;44750;52.040;7.472;2023-06-24T19:26:35;99665.19;;;28.31;nan
58973;BME280;44750;52.040;7.472;2023-06-24T19:31:36;99744.97;;;28.41;nan
58973;BME280;44750;52.040;7.472;2023-06-24T19:36:36;99754.38;;;28.21;nan
58973;BME280;44750;52.040;7.472;2023-06-24T19:41:36;99752.41;;;27.92;nan
58973;BME280;44750;52.040;7.472;2023-06-24T19:46:36;99817.56;;;27.80;nan
58973;BME280;44750;52.040;7.472;2023-06-24T19:51:37;99989.94;;;27.80;nan
58973;BME280;44750;52.040;7.472;2023-06-24T19:56:39;100037.81;;;27.72;nan
58973;BME280;44750;52.040;7.472;2023-06-24T20:01:39;100113.78;;;27.57;nan
58973;BME280;44750;52.040;7.472;2023-06-24T20:06:39;100213.03;;;27.46;nan
58973;BME280;44750;52.040;7.472;2023-06-24T20:11:39;100359.25;;;27.52;nan
58973;BME280;44750;52.040;7.472;2023-06-24T20:16:40;100360.88;;;27.38;nan
58973;BME280;44750;52.040;7.472;2023-06-24T20:21:40;100353.84;;;27.20;nan
58973;BME280;44750;52.040;7.472;2023-06-24T20:26:41;100337.94;;;27.00;nan
58973;BME280;44750;52.040;7.472;2023-06-24T20:31:41;100299.25;;;26.73;nan
58973;BME280;44750;52.040;7.472;2023-06-24T20:36:42;100297.19;;;26.58;nan
58973;BME280;44750;52.040;7.472;2023-06-24T20:41:42;100322.97;;;26.48;nan
58973;BME280;44750;52.040;7.472;2023-06-24T20:46:42;100313.16;;;26.30;nan
58973;BME280;44750;52.040;7.472;2023-06-24T20:51:42;100376.09;;;26.24;nan
58973;BME280;44750;52.040;7.472;2023-06-24T20:56:42;100370.50;;;26.19;nan
58973;BME280;44750;52.040;7.472;2023-06-24T21:01:43;100382.81;;;26.01;nan
58973;BME280;44750;52.040;7.472;2023-06-24T21:06:43;100393.25;;;25.89;nan
58973;BME280;44750;52.040;7.472;2023-06-24T21:11:43;100401.72;;;25.77;nan
58973;BME280;44750;52.040;7.472;2023-06-24T21:16:43;100457.44;;;25.75;nan
58973;BME280;44750;52.040;7.472;2023-06-24T21:21:44;100479.50;;;25.65;nan
58973;BME280;44750;52.040;7.472;2023-06-24T21:26:45;100510.75;;;25.60;nan
58973;BME280;44750;52.040;7.472;2023-06-24T21:31:46;100476.94;;;25.36;nan
58973;BME280;44750;52.040;7.472;2023-06-24T21:36:46;100472.50;;;24.96;nan
58973;BME280;44750;52.040;7.472;2023-06-24T21:41:46;100516.19;;;24.94;nan
58973;BME280;44750;52.040;7.472;2023-06-24T21:46:52;100571.00;;;24.92;nan
58973;BME280;44750;52.040;7.472;2023-06-24T21:51:52;100651.47;;;25.02;nan
58973;BME280;44750;52.040;7.472;2023-06-24T21:56:53;100729.59;;;25.21;nan
58973;BME280;44750;52.040;7.472;2023-06-24T22:01:53;100704.41;;;25.06;nan
58973;BME280;44750;52.040;7.472;2023-06-24T22:06:53;100723.63;;;24.95;nan
58973;BME280;44750;52.040;7.472;2023-06-24T22:11:53;100700.66;;;24.83;nan
58973;BME280;44750;52.040;7.472;2023-06-24T22:16:54;100701.22;;;24.97;nan
58973;BME280;44750;52.040;7.472;2023-06-24T22:21:54;100621.41;;;24.94;nan
58973;BME280;44750;52.040;7.472;2023-06-24T22:26:54;100637.25;;;24.81;nan
58973;BME280;44750;52.040;7.472;2023-06-24T22:31:54;100682.41;;;24.82;nan
58973;BME280;44750;52.040;7.472;2023-06-24T22:36:54;100706.19;;;24.66;nan
58973;BME280;44750;52.040;7.472;2023-06-24T22:41:55;100759.47;;;24.61;nan
58973;BME280;44750;52.040;7.472;2023-06-24T22:46:55;100768.56;;;24.45;nan
58973;BME280;44750;52.040;7.472;2023-06-24T22:51:55;100801.16;;;24.31;nan
58973;BME280;44750;52.040;7.472;2023-06-24T22:56:56;100782.16;;;24.23;nan
58973;BME280;44750;52.040;7.472;2023-06-24T23:01:56;100659.13;;;23.49;nan
58973;BME280;44750;52.040;7.472;2023-06-24T23:06:56;100810.13;;;23.67;nan
58973;BME280;44750;52.040;7.472;2023-06-24T23:11:57;100850.38;;;23.63;nan
58973;BME280;44750;52.040;7.472;2023-06-24T23:16:58;100854.56;;;23.53;nan
58973;BME280;44750;52.040;7.472;2023-06-24T23:21:58;100827.97;;;23.29;nan
58973;BME280;44750;52.040;7.472;2023-06-24T23:26:59;100821.59;;;23.10;nan
58973;BME280;44750;52.040;7.472;2023-06-24T23:32:00;100842.28;;;22.88;nan
58973;BME280;44750;52.040;7.472;2023-06-24T23:37:01;100845.50;;;22.85;nan
58973;BME280;44750;52.040;7.472;2023-06-24T23:42:02;100855.63;;;22.92;nan
58973;BME280;44750;52.040;7.472;2023-06-24T23:47:02;100849.63;;;22.76;nan
58973;BME280;44750;52.040;7.472;2023-06-24T23:52:03;100851.03;;;22.67;nan
58973;BME280;44750;52.040;7.472;2023-06-24T23:57:03;100846.88;;;22.58;nan
